Time;durP1;ratioP1;P1;durP2;ratioP2;P2;SDS_P1;SDS_P2;PMS_P1;PMS_P2;Temp;Humidity;BMP_temperature;BMP_pressure;BME280_temperature;BME280_humidity;BME280_pressure;Samples;Min_cycle;Max_cycle;Signal;HPM_P1;HPM_P2
2023/07/21 00:00:15;;;;;;;5.85;3.67;;;;;;;14.16;100.00;101285.78;4878231;29;20056;-82
2023/07/21 00:02:45;;;;;;;;;;;;;;;14.13;100.00;101283.13;4867033;29;20056;-82
2023/07/21 00:05:15;;;;;;;4.65;2.90;;;;;;;14.09;100.00;101279.63;4877695;29;19931;-81
2023/07/21 00:07:44;;;;;;;3.22;2.92;;;;;;;14.08;100.00;101283.16;4893139;29;20041;-81
2023/07/21 00:10:11;;;;;;;3.08;2.75;;;;;;;14.07;100.00;101273.44;4865232;29;20059;-82
2023/07/21 00:12:49;;;;;;;3.70;2.65;;;;;;;14.06;100.00;101271.66;4866525;29;20056;-81
2023/07/21 00:15:18;;;;;;;5.90;2.90;;;;;;;14.02;100.00;101269.94;4891436;29;20420;-81
2023/07/21 00:17:47;;;;;;;4.95;2.10;;;;;;;13.98;100.00;101273.47;4872099;29;20818;-82
2023/07/21 00:20:21;;;;;;;2.97;2.65;;;;;;;13.93;100.00;101270.88;4913626;29;20048;-82
2023/07/21 00:22:49;;;;;;;3.03;2.50;;;;;;;13.92;100.00;101279.69;4886574;29;20496;-81
2023/07/21 00:25:17;;;;;;;4.80;2.85;;;;;;;13.90;100.00;101270.00;4857491;29;20098;-82
2023/07/21 00:27:44;;;;;;;4.93;3.08;;;;;;;13.87;100.00;101273.50;4894098;29;20053;-81
2023/07/21 00:30:13;;;;;;;4.28;2.30;;;;;;;13.85;100.00;101270.00;4892577;29;20052;-80
2023/07/21 00:32:41;;;;;;;3.33;2.58;;;;;;;13.83;100.00;101262.03;4888231;29;20064;-81
2023/07/21 00:35:10;;;;;;;2.70;2.50;;;;;;;13.80;100.00;101264.72;4890790;29;20044;-80
2023/07/21 00:37:38;;;;;;;2.63;2.42;;;;;;;13.78;100.00;101263.84;4880659;29;20078;-81
2023/07/21 00:40:15;;;;;;;3.45;2.22;;;;;;;13.75;100.00;101265.63;4874922;29;20053;-81
2023/07/21 00:42:46;;;;;;;3.80;2.95;;;;;;;13.73;100.00;101264.75;4890162;29;20071;-82
2023/07/21 00:45:14;;;;;;;4.13;2.63;;;;;;;13.70;100.00;101267.41;4897536;29;20045;-82
2023/07/21 00:47:44;;;;;;;6.53;2.90;;;;;;;13.67;100.00;101264.75;4888363;29;20567;-81
2023/07/21 00:50:16;;;;;;;9.85;3.97;;;;;;;13.63;100.00;101253.31;4869107;29;20068;-81
2023/07/21 00:52:46;;;;;;;4.85;2.80;;;;;;;13.60;100.00;101256.81;4864366;29;20048;-81
2023/07/21 00:55:14;;;;;;;2.42;2.22;;;;;;;13.58;100.00;101260.38;4898816;29;20047;-80
2023/07/21 00:57:43;;;;;;;2.95;2.42;;;;;;;13.54;100.00;101255.97;4843070;29;20067;-81
2023/07/21 01:00:12;;;;;;;5.38;3.05;;;;;;;13.51;100.00;101256.84;4883234;29;20056;-81
2023/07/21 01:02:41;;;;;;;5.18;3.13;;;;;;;13.46;100.00;101250.72;4881472;29;20060;-81
2023/07/21 01:05:12;;;;;;;3.70;2.83;;;;;;;13.41;100.00;101253.34;4857181;29;20404;-81
2023/07/21 01:07:42;;;;;;;4.57;2.78;;;;;;;13.39;100.00;101254.25;4872527;29;20059;-81
2023/07/21 01:10:11;;;;;;;3.00;2.80;;;;;;;13.37;100.00;101254.25;4892109;29;20496;-83
2023/07/21 01:12:39;;;;;;;2.63;2.17;;;;;;;13.37;100.00;101250.72;4852511;29;20064;-81
2023/07/21 01:15:11;;;;;;;4.22;3.03;;;;;;;13.35;100.00;101241.91;4877188;29;20518;-81
2023/07/21 01:17:39;;;;;;;3.00;2.70;;;;;;;13.33;100.00;101246.31;4874968;29;20401;-83
2023/07/21 01:20:09;;;;;;;4.47;2.95;;;;;;;13.32;100.00;101247.19;4879312;29;20427;-82
2023/07/21 01:22:47;;;;;;;3.38;2.67;;;;;;;13.27;100.00;101245.41;4890979;29;20056;-82
2023/07/21 01:25:16;;;;;;;3.53;2.97;;;;;;;13.24;100.00;101245.41;4894494;29;20055;-81
2023/07/21 01:27:47;;;;;;;5.05;3.13;;;;;;;13.23;100.00;101241.00;4845685;29;20059;-80
2023/07/21 01:30:19;;;;;;;3.13;2.83;;;;;;;13.21;100.00;101236.59;4886706;29;20056;-81
2023/07/21 01:32:49;;;;;;;3.17;2.88;;;;;;;13.20;100.00;101235.72;4895264;29;20055;-81
2023/07/21 01:35:18;;;;;;;3.00;2.70;;;;;;;13.18;100.00;101231.31;4887782;29;20048;-81
2023/07/21 01:37:46;;;;;;;4.05;2.60;;;;;;;13.16;100.00;101233.97;4898632;29;20067;-81
2023/07/21 01:40:15;;;;;;;5.47;3.05;;;;;;;13.15;100.00;101226.88;4900392;29;20048;-82
2023/07/21 01:42:46;;;;;;;4.90;2.53;;;;;;;13.12;100.00;101224.25;4867319;29;20052;-81
2023/07/21 01:45:14;;;;;;;4.65;3.08;;;;;;;13.11;100.00;101218.97;4895122;29;20049;-83
2023/07/21 01:47:44;;;;;;;5.50;2.70;;;;;;;13.08;100.00;101225.16;4891430;29;20061;-80
2023/07/21 01:50:15;;;;;;;3.17;2.60;;;;;;;13.06;100.00;101213.66;4868967;29;20056;-82
2023/07/21 01:52:45;;;;;;;5.75;3.63;;;;;;;13.03;100.00;101218.97;4876035;29;20056;-82
2023/07/21 01:55:35;;;;;;;4.30;2.70;;;;;;;13.00;100.00;101211.91;4880523;29;20060;-81
2023/07/21 01:58:07;;;;;;;3.13;2.60;;;;;;;12.98;100.00;101213.69;4896395;29;20061;-82
2023/07/21 02:00:39;;;;;;;3.90;3.38;;;;;;;12.96;100.00;101209.28;4856281;29;20413;-81
2023/07/21 02:03:18;;;;;;;3.15;2.85;;;;;;;12.95;100.00;101215.44;4894727;29;20060;-80
2023/07/21 02:05:48;;;;;;;3.53;2.58;;;;;;;12.92;100.00;101218.09;4869158;29;20041;-82
2023/07/21 02:08:15;;;;;;;3.83;3.47;;;;;;;12.89;100.00;101205.75;4878697;29;20052;-81
2023/07/21 02:10:43;;;;;;;3.17;2.90;;;;;;;12.86;100.00;101209.28;4876173;29;20057;-81
2023/07/21 02:13:19;;;;;;;2.78;2.58;;;;;;;12.84;100.00;101204.88;4879516;29;20056;-82
2023/07/21 02:15:47;;;;;;;3.45;2.90;;;;;;;12.81;100.00;101205.75;4839667;29;20079;-82
2023/07/21 02:18:17;;;;;;;3.75;3.45;;;;;;;12.80;100.00;101209.28;4880373;29;20048;-82
2023/07/21 02:20:44;;;;;;;3.45;3.15;;;;;;;12.79;100.00;101206.66;4885676;29;20056;-82
2023/07/21 02:23:12;;;;;;;5.63;3.30;;;;;;;12.75;100.00;101208.41;4900793;29;20048;-82
2023/07/21 02:25:41;;;;;;;4.10;3.08;;;;;;;12.73;100.00;101202.22;4868936;29;20048;-81
2023/07/21 02:28:09;;;;;;;3.75;3.35;;;;;;;12.73;100.00;101202.22;4866670;29;20052;-81
2023/07/21 02:30:36;;;;;;;4.38;3.60;;;;;;;12.73;100.00;101198.72;4841569;29;20384;-82
2023/07/21 02:33:04;;;;;;;4.45;3.80;;;;;;;12.75;100.00;101202.25;4866675;29;20390;-81
2023/07/21 02:35:32;;;;;;;4.25;3.85;;;;;;;12.74;100.00;101189.88;4888270;29;20173;-82
2023/07/21 02:38:03;;;;;;;4.05;3.65;;;;;;;12.75;100.00;101191.66;4874765;29;20067;-82
2023/07/21 02:40:31;;;;;;;6.07;3.92;;;;;;;12.76;100.00;101194.31;4897022;29;20059;-80
2023/07/21 02:42:59;;;;;;;5.78;3.90;;;;;;;12.73;100.00;101178.44;4881620;29;20870;-79
2023/07/21 02:45:27;;;;;;;5.95;4.03;;;;;;;12.72;100.00;101181.06;4863500;29;20715;-81
2023/07/21 02:47:54;;;;;;;5.15;4.05;;;;;;;12.69;100.00;101174.03;4887087;29;20057;-81
2023/07/21 02:50:23;;;;;;;7.15;4.50;;;;;;;12.67;100.00;101181.97;4847213;29;20462;-83
2023/07/21 02:52:50;;;;;;;5.78;4.55;;;;;;;12.66;100.00;101185.50;4885387;29;20044;-82
2023/07/21 02:55:19;;;;;;;4.95;4.25;;;;;;;12.65;100.00;101182.84;4878327;29;20056;-82
2023/07/21 02:57:47;;;;;;;5.15;4.38;;;;;;;12.64;100.00;101179.31;4873746;29;20745;-81
2023/07/21 03:00:18;;;;;;;6.57;4.93;;;;;;;12.63;100.00;101184.63;4841345;29;20412;-79
2023/07/21 03:02:59;;;;;;;6.57;4.22;;;;;;;12.62;100.00;101180.19;4858711;29;20055;-81
2023/07/21 03:05:31;;;;;;;5.03;4.53;;;;;;;12.60;100.00;101176.69;4864550;29;20772;-81
2023/07/21 03:08:03;;;;;;;7.15;6.18;;;;;;;12.58;100.00;101173.16;4867372;29;20053;-81
2023/07/21 03:10:31;;;;;;;7.00;5.90;;;;;;;12.57;100.00;101168.75;4893701;29;20536;-82
2023/07/21 03:12:59;;;;;;;6.15;5.50;;;;;;;12.55;100.00;101173.16;4893823;29;20063;-82
2023/07/21 03:15:29;;;;;;;;;;;;;;;12.53;100.00;101177.56;4846550;29;20044;-81
2023/07/21 03:18:02;;;;;;;5.82;4.38;;;;;;;12.49;100.00;101179.31;4886618;29;20315;-82
2023/07/21 03:20:35;;;;;;;5.57;5.07;;;;;;;12.46;100.00;101177.56;4894056;29;20062;-83
2023/07/21 03:23:07;;;;;;;6.72;5.32;;;;;;;12.46;100.00;101174.91;4871240;29;20056;-83
2023/07/21 03:25:35;;;;;;;5.95;4.75;;;;;;;12.44;100.00;101168.75;4900013;29;20054;-83
2023/07/21 03:28:03;;;;;;;6.18;4.97;;;;;;;12.45;100.00;101165.22;4880263;29;20056;-82
2023/07/21 03:30:33;;;;;;;;;;;;;;;12.44;100.00;101170.53;4865355;29;20056;-82
2023/07/21 03:33:12;;;;;;;6.93;4.65;;;;;;;12.42;100.00;101165.22;4859599;29;20311;-82
2023/07/21 03:35:40;;;;;;;6.88;4.65;;;;;;;12.41;100.00;101166.09;4893754;29;20052;-82
2023/07/21 03:38:10;;;;;;;6.15;4.85;;;;;;;12.40;100.00;101164.34;4881253;29;20052;-82
2023/07/21 03:40:38;;;;;;;5.95;4.90;;;;;;;12.41;100.00;101167.88;4866384;29;20080;-83
2023/07/21 03:43:05;;;;;;;5.10;4.60;;;;;;;12.40;100.00;101164.34;4877283;29;20044;-82
2023/07/21 03:45:34;;;;;;;4.55;4.13;;;;;;;12.40;100.00;101171.38;4862045;29;20057;-83
2023/07/21 03:48:02;;;;;;;5.05;4.40;;;;;;;12.37;100.00;101155.53;4874134;29;20044;-82
2023/07/21 03:50:32;;;;;;;5.32;4.25;;;;;;;12.35;100.00;101157.28;4874374;29;20060;-82
2023/07/21 03:53:00;;;;;;;7.15;4.20;;;;;;;12.35;100.00;101160.81;4879091;29;20037;-81
2023/07/21 03:55:28;;;;;;;4.72;4.15;;;;;;;12.36;100.00;101159.03;4875563;29;20130;-82
2023/07/21 03:57:55;;;;;;;5.38;4.10;;;;;;;12.37;100.00;101166.09;4874451;29;20048;-82
2023/07/21 04:00:23;;;;;;;6.15;4.72;;;;;;;12.39;100.00;101165.22;4863392;29;20059;-81
2023/07/21 04:02:51;;;;;;;4.65;4.25;;;;;;;12.41;100.00;101171.38;4855982;29;20514;-82
2023/07/21 04:05:19;;;;;;;4.32;3.90;;;;;;;12.41;100.00;101173.16;4868630;29;20055;-81
2023/07/21 04:07:47;;;;;;;5.32;4.07;;;;;;;12.42;100.00;101165.22;4874569;29;20052;-82
2023/07/21 04:10:14;;;;;;;5.53;3.92;;;;;;;12.42;100.00;101165.22;4897525;29;20059;-82
2023/07/21 04:12:42;;;;;;;6.72;4.30;;;;;;;12.46;100.00;101166.13;4890445;29;20055;-82
2023/07/21 04:15:09;;;;;;;5.40;4.25;;;;;;;12.50;100.00;101162.59;4870271;29;20052;-83
2023/07/21 04:17:36;;;;;;;5.07;3.75;;;;;;;12.52;100.00;101157.31;4873834;29;20044;-83
2023/07/21 04:20:05;;;;;;;5.53;4.15;;;;;;;12.56;100.00;101154.66;4900212;29;20520;-82
2023/07/21 04:22:33;;;;;;;8.02;4.18;;;;;;;12.70;100.00;101159.91;4896492;29;20857;-81
2023/07/21 04:25:02;;;;;;;8.00;3.97;;;;;;;13.09;100.00;101158.13;4886315;29;20426;-80
2023/07/21 04:27:29;;;;;;;6.13;3.83;;;;;;;13.44;100.00;101162.47;4861203;29;20041;-80
2023/07/21 04:29:58;;;;;;;6.00;4.05;;;;;;;13.65;100.00;101145.63;4904518;29;20055;-81
2023/07/21 04:32:25;;;;;;;5.95;4.63;;;;;;;13.87;100.00;101159.59;4852977;29;20079;-83
2023/07/21 04:34:57;;;;;;;4.50;4.10;;;;;;;14.01;100.00;101160.41;4896135;29;20044;-80
2023/07/21 04:37:26;;;;;;;4.68;3.85;;;;;;;14.12;100.00;101162.09;4872216;29;20048;-81
2023/07/21 04:39:55;;;;;;;7.43;4.40;;;;;;;14.31;100.00;101163.75;4890513;29;20037;-81
2023/07/21 04:42:22;;;;;;;5.15;3.42;;;;;;;14.58;100.00;101159.16;4887386;29;20754;-81
2023/07/21 04:44:49;;;;;;;4.43;3.58;;;;;;;14.78;100.00;101170.50;4869375;29;20411;-82
2023/07/21 04:47:18;;;;;;;4.82;3.45;;;;;;;15.25;100.00;101172.66;4857790;29;20151;-81
2023/07/21 04:49:58;;;;;;;4.07;3.70;;;;;;;15.72;100.00;101163.25;4867683;29;20535;-81
2023/07/21 04:52:26;;;;;;;3.70;3.28;;;;;;;15.75;100.00;101160.59;4853775;29;20055;-81
2023/07/21 04:54:53;;;;;;;5.35;3.70;;;;;;;15.93;100.00;101162.97;4857588;29;20053;-81
2023/07/21 04:57:21;;;;;;;6.82;3.95;;;;;;;16.48;100.00;101157.75;4855913;29;20052;-82
2023/07/21 04:59:49;;;;;;;4.07;3.53;;;;;;;16.90;100.00;101160.59;4860654;29;20057;-81
2023/07/21 05:02:16;;;;;;;4.60;3.53;;;;;;;17.35;100.00;101163.28;4872510;29;20096;-83
2023/07/21 05:04:44;;;;;;;3.92;3.35;;;;;;;17.86;100.00;101160.50;4860610;29;20048;-83
2023/07/21 05:07:12;;;;;;;4.68;4.07;;;;;;;18.33;100.00;101164.78;4852847;29;20049;-81
2023/07/21 05:09:41;;;;;;;6.45;3.55;;;;;;;18.57;100.00;101161.50;4874473;29;20056;-81
2023/07/21 05:12:13;;;;;;;3.97;3.38;;;;;;;18.80;100.00;101163.59;4845483;29;20052;-81
2023/07/21 05:14:54;;;;;;;3.88;3.08;;;;;;;18.84;100.00;101169.75;4854375;29;20061;-81
2023/07/21 05:17:40;;;;;;;3.13;2.90;;;;;;;18.95;100.00;101162.34;4880091;29;20063;-81
2023/07/21 05:20:39;;;;;;;5.75;3.45;;;;;;;19.44;100.00;101166.31;4830208;29;20076;-83
2023/07/21 05:23:27;;;;;;;3.60;2.92;;;;;;;20.05;100.00;101168.13;4883027;29;20822;-83
2023/07/21 05:26:00;;;;;;;3.05;2.80;;;;;;;20.59;100.00;101153.88;4859309;29;20056;-82
2023/07/21 05:28:31;;;;;;;5.13;2.95;;;;;;;20.87;100.00;101157.44;4878809;29;20500;-81
2023/07/21 05:30:59;;;;;;;3.20;2.67;;;;;;;21.22;100.00;101149.00;4883412;29;20052;-81
2023/07/21 05:33:36;;;;;;;3.88;2.40;;;;;;;21.51;100.00;101151.59;4877757;29;20224;-81
2023/07/21 05:36:08;;;;;;;2.70;2.47;;;;;;;21.26;100.00;101143.56;4862505;29;20048;-82
2023/07/21 05:38:37;;;;;;;2.53;2.10;;;;;;;20.84;100.00;101142.34;4887847;29;20055;-82
2023/07/21 05:41:05;;;;;;;3.83;2.55;;;;;;;20.49;100.00;101151.56;4874376;29;20064;-81
2023/07/21 05:43:47;;;;;;;3.35;2.17;;;;;;;20.10;100.00;101154.63;4903796;29;20911;-82
2023/07/21 05:46:14;;;;;;;4.07;2.55;;;;;;;19.65;100.00;101154.13;4866014;29;20062;-81
2023/07/21 05:48:51;;;;;;;3.33;2.35;;;;;;;19.25;100.00;101155.28;4881472;29;20041;-84
2023/07/21 05:51:18;;;;;;;3.85;2.90;;;;;;;19.19;100.00;101159.94;4865384;29;20063;-82
2023/07/21 05:53:50;;;;;;;2.63;2.42;;;;;;;19.58;100.00;101157.03;4858296;29;20053;-82
2023/07/21 05:56:21;;;;;;;4.10;2.67;;;;;;;19.86;100.00;101152.63;4875600;29;20052;-81
2023/07/21 05:58:55;;;;;;;4.68;2.58;;;;;;;19.75;100.00;101154.75;4836410;29;20397;-82
2023/07/21 06:01:23;;;;;;;4.32;2.40;;;;;;;19.48;100.00;101151.94;4849974;29;20053;-81
2023/07/21 06:03:51;;;;;;;6.28;2.75;;;;;;;19.20;100.00;101149.19;4902504;29;20079;-81
2023/07/21 06:06:18;;;;;;;3.42;2.42;;;;;;;18.97;100.00;101147.16;4847282;29;20071;-82
2023/07/21 06:09:06;;;;;;;4.07;2.42;;;;;;;18.74;100.00;101142.38;4876917;29;20059;-82
2023/07/21 06:11:37;;;;;;;2.88;2.33;;;;;;;18.56;100.00;101142.84;4861910;29;20052;-80
2023/07/21 06:14:24;;;;;;;5.78;2.70;;;;;;;18.45;100.00;101135.09;4859303;29;20053;-82
2023/07/21 06:17:12;;;;;;;3.25;2.95;;;;;;;18.43;100.00;101140.50;4885048;29;20530;-83
2023/07/21 06:19:41;;;;;;;7.55;3.28;;;;;;;18.54;100.00;101131.34;4872611;29;20056;-82
2023/07/21 06:22:09;;;;;;;6.10;2.97;;;;;;;18.69;100.00;101126.50;4849742;29;20052;-81
2023/07/21 06:24:37;;;;;;;3.60;2.55;;;;;;;18.82;100.00;101124.41;4858947;29;20508;-81
2023/07/21 06:27:05;;;;;;;7.72;2.97;;;;;;;19.01;100.00;101121.22;4880704;29;20052;-80
2023/07/21 06:29:35;;;;;;;3.65;2.97;;;;;;;19.14;100.00;101127.13;4852727;29;20075;-81
2023/07/21 06:32:04;;;;;;;3.85;2.58;;;;;;;19.20;100.00;101119.78;4898557;29;20068;-81
2023/07/21 06:34:49;;;;;;;3.55;2.50;;;;;;;19.18;100.00;101123.44;4887880;29;20081;-81
2023/07/21 06:37:44;;;;;;;5.63;3.15;;;;;;;19.21;100.00;101120.69;4842152;29;20079;-81
2023/07/21 06:40:30;;;;;;;4.80;2.60;;;;;;;19.32;100.00;101113.25;4876144;29;20049;-81
2023/07/21 06:43:21;;;;;;;3.22;2.30;;;;;;;19.41;100.00;101106.75;4858800;29;20052;-81
2023/07/21 06:46:05;;;;;;;3.20;2.30;;;;;;;19.50;100.00;101103.78;4875216;29;20084;-80
2023/07/21 06:48:53;;;;;;;5.38;2.45;;;;;;;19.59;100.00;101108.00;4879655;29;20040;-81
2023/07/21 06:51:40;;;;;;;2.22;1.90;;;;;;;19.66;100.00;101098.88;4879094;29;20056;-80
2023/07/21 06:54:08;;;;;;;3.25;2.55;;;;;;;19.66;100.00;101102.41;4842941;29;20049;-80
2023/07/21 06:56:35;;;;;;;2.85;1.80;;;;;;;19.77;100.00;101104.81;4864693;29;20063;-81
2023/07/21 06:59:03;;;;;;;2.67;1.75;;;;;;;19.79;100.00;101107.41;4857461;29;20068;-81
2023/07/21 07:01:30;;;;;;;1.60;1.50;;;;;;;19.68;100.00;101108.59;4889101;29;20044;-80
2023/07/21 07:03:59;;;;;;;1.90;1.20;;;;;;;19.53;100.00;101100.16;4850204;29;20472;-81
2023/07/21 07:06:29;;;;;;;2.63;1.48;;;;;;;19.45;100.00;101106.63;4891264;29;20422;-80
2023/07/21 07:08:57;;;;;;;4.22;1.92;;;;;;;19.50;100.00;101105.59;4848142;29;20060;-80
2023/07/21 07:11:24;;;;;;;1.80;1.35;;;;;;;19.60;100.00;101107.97;4882926;29;20051;-81
2023/07/21 07:13:52;;;;;;;2.20;1.42;;;;;;;19.69;100.00;101112.13;4862120;29;20057;-80
2023/07/21 07:16:19;;;;;;;1.55;1.17;;;;;;;19.70;100.00;101097.84;4868138;29;20049;-81
2023/07/21 07:18:47;;;;;;;1.25;1.17;;;;;;;19.72;100.00;101104.06;4859061;29;20055;-82
2023/07/21 07:21:14;;;;;;;3.38;1.30;;;;;;;19.63;100.00;101102.50;4874862;29;20163;-80
2023/07/21 07:23:42;;;;;;;4.53;1.52;;;;;;;19.61;100.00;101100.81;4836619;29;20060;-80
2023/07/21 07:26:09;;;;;;;1.65;1.25;;;;;;;19.60;100.00;101094.59;4882879;29;20492;-81
2023/07/21 07:28:38;;;;;;;3.05;1.55;;;;;;;19.62;100.00;101099.88;4874128;29;20049;-81
2023/07/21 07:31:06;;;;;;;2.13;1.60;;;;;;;19.63;100.00;101097.16;4897902;29;20590;-80
2023/07/21 07:33:33;;;;;;;1.48;1.38;;;;;;;19.64;100.00;101095.34;4905211;29;21207;-81
2023/07/21 07:36:02;;;;;;;2.63;1.70;;;;;;;19.70;100.00;101099.63;4853967;29;20048;-80
2023/07/21 07:38:30;;;;;;;2.78;1.98;;;;;;;19.71;100.00;101096.06;4859039;29;20052;-80
2023/07/21 07:41:09;;;;;;;2.40;1.65;;;;;;;19.83;100.00;101098.41;4875980;29;20060;-80
2023/07/21 07:43:37;;;;;;;3.45;1.73;;;;;;;19.96;100.00;101094.41;4873072;29;20420;-80
2023/07/21 07:46:07;;;;;;;3.35;1.70;;;;;;;20.01;100.00;101087.09;4862596;29;20060;-80
2023/07/21 07:48:35;;;;;;;1.60;1.50;;;;;;;19.98;100.00;101095.22;4886480;29;20147;-81
2023/07/21 07:51:04;;;;;;;2.97;1.80;;;;;;;20.01;100.00;101091.56;4887432;29;20057;-80
2023/07/21 07:53:32;;;;;;;3.55;1.40;;;;;;;20.09;100.00;101088.66;4865995;29;20064;-81
2023/07/21 07:56:00;;;;;;;2.83;2.08;;;;;;;20.06;100.00;101086.97;4882215;29;20039;-80
2023/07/21 07:58:27;;;;;;;1.85;1.42;;;;;;;19.99;100.00;101085.41;4886012;29;20059;-80
2023/07/21 08:00:56;;;;;;;1.73;1.60;;;;;;;19.94;100.00;101084.66;4890954;29;20056;-82
2023/07/21 08:03:24;;;;;;;3.60;1.38;;;;;;;19.89;100.00;101081.28;4874650;29;20629;-80
2023/07/21 08:05:51;;;;;;;2.35;0.95;;;;;;;19.84;100.00;101082.28;4881644;29;20051;-80
2023/07/21 08:08:21;;;;;;;1.33;1.23;;;;;;;19.78;100.00;101090.50;4897854;29;20055;-80
2023/07/21 08:10:49;;;;;;;1.20;1.20;;;;;;;19.75;100.00;101085.22;4833713;29;20059;-80
2023/07/21 08:13:17;;;;;;;1.70;1.60;;;;;;;19.71;100.00;101088.91;4884334;29;20094;-80
2023/07/21 08:15:45;;;;;;;2.05;1.30;;;;;;;19.67;100.00;101082.78;4875983;29;20061;-80
2023/07/21 08:18:12;;;;;;;3.13;1.48;;;;;;;19.54;100.00;101081.41;4875527;29;20060;-80
2023/07/21 08:20:40;;;;;;;1.83;1.23;;;;;;;19.42;100.00;101079.97;4890263;29;20052;-80
2023/07/21 08:23:08;;;;;;;1.92;1.63;;;;;;;19.40;100.00;101081.81;4878419;29;20056;-80
2023/07/21 08:25:55;;;;;;;1.63;1.52;;;;;;;19.53;100.00;101084.09;4837819;29;20052;-80
2023/07/21 08:28:22;;;;;;;1.23;1.13;;;;;;;19.68;100.00;101078.31;4876217;29;20464;-80
2023/07/21 08:30:50;;;;;;;2.38;1.20;;;;;;;19.81;100.00;101069.03;4837184;29;20059;-78
2023/07/21 08:33:26;;;;;;;1.20;1.10;;;;;;;20.05;100.00;101077.16;4868305;29;20056;-80
2023/07/21 08:35:54;;;;;;;1.88;1.77;;;;;;;20.19;100.00;101066.03;4861618;29;20060;-78
2023/07/21 08:38:22;;;;;;;1.30;1.20;;;;;;;20.26;100.00;101075.56;4889606;29;20698;-79
2023/07/21 08:41:01;;;;;;;1.88;1.55;;;;;;;20.19;99.15;101079.41;4821253;29;20971;-79
2023/07/21 08:43:29;;;;;;;1.35;1.10;;;;;;;20.06;98.43;101069.09;4882312;29;20514;-79
2023/07/21 08:46:03;;;;;;;1.55;1.10;;;;;;;20.00;98.82;101068.41;4882173;29;20053;-81
2023/07/21 08:48:32;;;;;;;1.10;1.10;;;;;;;19.94;97.71;101066.81;4874863;29;20051;-81
2023/07/21 08:51:00;;;;;;;3.53;1.30;;;;;;;19.96;95.96;101069.44;4873718;29;20060;-79
2023/07/21 08:53:28;;;;;;;1.98;1.05;;;;;;;20.08;97.18;101065.50;4880357;29;20447;-80
2023/07/21 08:55:56;;;;;;;2.15;1.10;;;;;;;20.19;96.31;101066.91;4856316;29;20061;-79
2023/07/21 08:58:25;;;;;;;3.13;1.05;;;;;;;20.26;95.71;101062.19;4860021;29;20057;-79
2023/07/21 09:00:55;;;;;;;1.33;1.23;;;;;;;20.36;96.90;101060.97;4894308;29;20060;-80
2023/07/21 09:03:28;;;;;;;1.30;1.17;;;;;;;20.47;96.30;101063.25;4867647;29;20053;-79
2023/07/21 09:05:58;;;;;;;2.83;1.00;;;;;;;20.45;93.13;101062.44;4890838;29;20060;-80
2023/07/21 09:08:28;;;;;;;1.95;1.02;;;;;;;20.38;92.93;101063.59;4864860;29;20055;-80
2023/07/21 09:10:59;;;;;;;1.63;1.33;;;;;;;20.36;93.20;101060.06;4883730;29;20752;-79
2023/07/21 09:13:28;;;;;;;1.30;1.20;;;;;;;20.33;93.26;101055.72;4830676;29;20067;-80
2023/07/21 09:15:56;;;;;;;1.27;1.10;;;;;;;20.30;93.61;101054.94;4878592;29;20063;-81
2023/07/21 09:18:29;;;;;;;1.25;0.95;;;;;;;20.22;93.16;101053.41;4868010;29;20052;-81
2023/07/21 09:20:57;;;;;;;1.67;1.08;;;;;;;20.18;93.85;101057.09;4882722;29;20563;-80
2023/07/21 09:23:29;;;;;;;1.05;1.05;;;;;;;20.13;93.65;101053.72;4883071;29;20048;-80
2023/07/21 09:25:59;;;;;;;1.30;1.20;;;;;;;20.16;93.79;101058.97;4879988;29;20044;-80
2023/07/21 09:28:44;;;;;;;1.65;0.98;;;;;;;20.23;90.52;101046.28;4853008;29;20060;-80
2023/07/21 09:31:13;;;;;;;2.35;1.30;;;;;;;20.19;91.19;101047.31;4879193;29;20099;-81
2023/07/21 09:33:42;;;;;;;1.25;1.08;;;;;;;20.19;90.42;101044.63;4876541;29;20048;-81
2023/07/21 09:36:13;;;;;;;0.98;0.98;;;;;;;20.22;91.88;101042.69;4910302;29;20052;-81
2023/07/21 09:38:41;;;;;;;1.27;1.20;;;;;;;20.29;92.62;101045.19;4882549;29;20071;-81
2023/07/21 09:41:11;;;;;;;1.08;0.90;;;;;;;20.42;92.62;101050.06;4905807;29;20064;-80
2023/07/21 09:43:40;;;;;;;1.13;1.05;;;;;;;20.52;89.31;101041.72;4859253;29;20056;-81
2023/07/21 09:46:08;;;;;;;2.00;0.85;;;;;;;20.56;88.99;101041.53;4874887;29;20061;-81
2023/07/21 09:48:44;;;;;;;1.23;1.15;;;;;;;20.63;88.71;101039.56;4859956;29;20052;-81
2023/07/21 09:51:12;;;;;;;1.17;0.90;;;;;;;20.73;87.44;101048.13;4889781;29;20056;-81
2023/07/21 09:53:45;;;;;;;2.33;1.17;;;;;;;20.73;87.15;101040.09;4867416;29;20068;-81
2023/07/21 09:56:15;;;;;;;1.73;0.80;;;;;;;20.64;85.35;101043.97;4875457;29;20063;-80
2023/07/21 09:58:51;;;;;;;4.68;1.00;;;;;;;20.52;82.91;101045.25;4831605;29;20067;-80
2023/07/21 10:01:19;;;;;;;3.90;1.05;;;;;;;20.46;84.63;101045.47;4880884;29;20055;-79
2023/07/21 10:03:47;;;;;;;2.00;1.00;;;;;;;20.55;84.83;101044.28;4866114;29;20071;-79
2023/07/21 10:06:16;;;;;;;1.25;0.80;;;;;;;20.71;86.01;101036.59;4868929;29;20049;-80
2023/07/21 10:08:45;;;;;;;3.13;1.23;;;;;;;20.84;84.55;101040.59;4847058;29;20052;-81
2023/07/21 10:11:14;;;;;;;0.70;0.70;;;;;;;20.80;83.35;101044.31;4876662;29;20520;-79
2023/07/21 10:13:46;;;;;;;3.13;1.30;;;;;;;20.69;83.36;101039.31;4857709;29;22167;-80
2023/07/21 10:16:14;;;;;;;1.35;0.93;;;;;;;20.55;84.74;101034.44;4877379;29;20060;-80
2023/07/21 10:19:08;;;;;;;1.15;0.95;;;;;;;20.45;85.07;101036.56;4848841;29;20500;-80
2023/07/21 10:21:54;;;;;;;0.93;0.90;;;;;;;20.43;84.20;101034.84;4872582;29;20696;-79
2023/07/21 10:24:34;;;;;;;2.15;1.10;;;;;;;20.40;83.32;101033.19;4856182;29;20057;-81
2023/07/21 10:27:03;;;;;;;1.50;1.05;;;;;;;20.40;85.27;101029.63;4874804;29;20428;-81
2023/07/21 10:29:31;;;;;;;1.20;1.05;;;;;;;20.38;85.86;101027.00;4824406;29;20500;-80
2023/07/21 10:32:03;;;;;;;1.33;1.10;;;;;;;20.41;85.62;101029.56;4867749;29;20506;-81
2023/07/21 10:34:39;;;;;;;1.48;1.08;;;;;;;20.49;86.03;101029.31;4867461;29;20057;-80
2023/07/21 10:37:07;;;;;;;1.00;1.00;;;;;;;20.65;86.73;101024.31;4872767;29;20056;-76
2023/07/21 10:39:37;;;;;;;2.92;1.10;;;;;;;20.81;86.21;101030.88;4872656;29;20048;-79
2023/07/21 10:42:07;;;;;;;2.50;1.17;;;;;;;20.97;84.42;101031.16;4888889;29;20397;-79
2023/07/21 10:44:40;;;;;;;1.13;1.02;;;;;;;21.19;85.57;101024.97;4841427;29;20421;-79
2023/07/21 10:47:15;;;;;;;1.60;1.05;;;;;;;21.27;83.52;101025.59;4871696;29;20075;-79
2023/07/21 10:49:45;;;;;;;1.75;0.98;;;;;;;21.25;84.04;101023.88;4881414;29;20052;-79
2023/07/21 10:52:13;;;;;;;1.23;1.00;;;;;;;21.23;81.88;101027.50;4874844;29;20067;-82
2023/07/21 10:54:40;;;;;;;0.80;0.80;;;;;;;21.13;81.55;101019.88;4877212;29;20048;-80
2023/07/21 10:57:08;;;;;;;7.53;1.10;;;;;;;21.03;82.17;101028.25;4880801;29;20040;-79
2023/07/21 10:59:37;;;;;;;2.33;1.17;;;;;;;20.93;81.30;101026.00;4883545;29;20059;-79
2023/07/21 11:02:08;;;;;;;1.40;1.13;;;;;;;20.86;81.26;101030.69;4849968;29;20044;-79
2023/07/21 11:04:40;;;;;;;2.83;1.10;;;;;;;20.80;83.31;101026.44;4885266;29;20273;-80
2023/07/21 11:07:08;;;;;;;2.70;1.25;;;;;;;20.83;83.85;101026.31;4866729;29;20060;-80
2023/07/21 11:09:42;;;;;;;1.52;1.33;;;;;;;20.87;84.73;101018.16;4869682;29;20057;-79
2023/07/21 11:12:10;;;;;;;1.10;1.00;;;;;;;20.87;82.69;101018.16;4864026;29;20044;-79
2023/07/21 11:14:37;;;;;;;1.45;1.35;;;;;;;20.82;82.18;101015.66;4874983;29;20052;-79
2023/07/21 11:17:05;;;;;;;1.42;1.00;;;;;;;20.77;80.18;101017.63;4829689;29;20535;-81
2023/07/21 11:19:34;;;;;;;1.33;1.23;;;;;;;20.74;80.07;101017.75;4869446;29;20048;-81
2023/07/21 11:22:04;;;;;;;1.13;1.02;;;;;;;20.74;81.01;101017.75;4891835;29;20045;-79
2023/07/21 11:24:32;;;;;;;1.67;1.20;;;;;;;20.70;79.80;101022.34;4869853;29;20408;-80
2023/07/21 11:27:10;;;;;;;1.33;1.15;;;;;;;20.69;78.48;101019.72;4849005;29;20526;-80
2023/07/21 11:29:45;;;;;;;1.45;1.20;;;;;;;20.70;79.21;101011.63;4863034;29;20069;-80
2023/07/21 11:32:32;;;;;;;3.10;1.15;;;;;;;20.74;78.83;101017.75;4844642;29;20060;-79
2023/07/21 11:35:00;;;;;;;1.58;1.48;;;;;;;20.74;79.13;101023.13;4883754;29;20052;-78